createdAt,value
2022-12-07T00:01:16.849Z,18.92
2022-12-07T00:03:44.855Z,20.67
2022-12-07T00:06:13.951Z,20.75
2022-12-07T00:08:40.568Z,23.38
2022-12-07T00:11:12.661Z,23.20
2022-12-07T00:13:39.748Z,23.05
2022-12-07T00:16:14.419Z,22.92
2022-12-07T00:18:41.715Z,24.67
2022-12-07T00:21:12.309Z,28.98
2022-12-07T00:23:39.788Z,28.42
2022-12-07T00:26:08.493Z,28.70
2022-12-07T00:28:35.335Z,30.00
2022-12-07T00:31:12.751Z,29.38
2022-12-07T00:33:39.373Z,31.55
2022-12-07T00:36:08.554Z,30.23
2022-12-07T00:38:36.892Z,31.27
2022-12-07T00:41:05.902Z,32.22
2022-12-07T00:43:32.404Z,32.00
2022-12-07T00:46:01.398Z,31.63
2022-12-07T00:48:27.860Z,31.35
2022-12-07T00:50:54.172Z,32.05
2022-12-07T00:53:20.601Z,32.08
2022-12-07T00:55:47.235Z,32.42
2022-12-07T00:58:14.056Z,33.78
2022-12-07T01:00:42.678Z,33.00
2022-12-07T01:03:11.355Z,33.58
2022-12-07T01:05:37.912Z,33.35
2022-12-07T01:08:04.773Z,32.50
2022-12-07T01:10:31.221Z,32.05
2022-12-07T01:12:57.570Z,29.98
2022-12-07T01:15:23.985Z,32.33
2022-12-07T01:17:50.414Z,29.63
2022-12-07T01:20:16.846Z,27.85
2022-12-07T01:22:44.862Z,27.33
2022-12-07T01:25:12.359Z,27.70
2022-12-07T01:27:38.854Z,25.80
2022-12-07T01:30:07.228Z,25.15
2022-12-07T01:32:34.775Z,25.75
2022-12-07T01:35:01.112Z,24.23
2022-12-07T01:37:27.432Z,24.58
2022-12-07T01:39:53.855Z,23.83
2022-12-07T01:42:20.358Z,24.50
2022-12-07T01:45:23.972Z,24.20
2022-12-07T01:47:58.362Z,24.45
2022-12-07T01:50:27.670Z,24.83
2022-12-07T01:52:57.077Z,24.05
2022-12-07T01:55:23.835Z,24.88
2022-12-07T01:57:52.993Z,23.88
2022-12-07T02:00:20.254Z,24.40
2022-12-07T02:02:56.787Z,22.02
2022-12-07T02:05:25.108Z,22.85
2022-12-07T02:07:53.928Z,22.40
2022-12-07T02:10:26.795Z,20.85
2022-12-07T02:12:56.874Z,22.00
2022-12-07T02:15:29.022Z,21.35
2022-12-07T02:18:08.469Z,20.67
2022-12-07T02:20:39.972Z,21.35
2022-12-07T02:23:18.521Z,22.20
2022-12-07T02:26:09.650Z,20.38
2022-12-07T02:28:45.259Z,21.33
2022-12-07T02:31:21.395Z,21.70
2022-12-07T02:33:55.538Z,20.92
2022-12-07T02:36:28.677Z,22.90
2022-12-07T02:39:08.100Z,22.63
2022-12-07T02:41:40.813Z,20.67
2022-12-07T02:44:21.172Z,20.67
2022-12-07T02:47:18.273Z,18.45
2022-12-07T02:49:45.173Z,18.15
2022-12-07T02:52:11.580Z,17.95
2022-12-07T02:54:38.006Z,17.75
2022-12-07T02:57:28.936Z,16.90
2022-12-07T03:00:08.614Z,17.30
2022-12-07T03:02:57.017Z,16.50
2022-12-07T03:05:31.791Z,15.65
2022-12-07T03:08:40.132Z,16.48
2022-12-07T03:11:11.550Z,15.82
2022-12-07T03:13:40.862Z,16.10
2022-12-07T03:16:10.183Z,17.15
2022-12-07T03:19:12.097Z,16.77
2022-12-07T03:21:42.611Z,16.95
2022-12-07T03:24:32.027Z,15.68
2022-12-07T03:27:07.265Z,15.02
2022-12-07T03:29:43.073Z,14.60
2022-12-07T03:32:23.070Z,13.95
2022-12-07T03:35:06.388Z,14.25
2022-12-07T03:37:44.334Z,14.40
2022-12-07T03:40:36.063Z,14.95
2022-12-07T03:43:04.913Z,12.88
2022-12-07T03:45:40.664Z,13.52
2022-12-07T03:48:26.360Z,13.20
2022-12-07T03:51:11.715Z,12.80
2022-12-07T03:53:47.696Z,13.18
2022-12-07T03:56:14.830Z,13.23
2022-12-07T03:58:42.555Z,11.65
2022-12-07T04:01:09.427Z,11.40
2022-12-07T04:03:35.752Z,12.20
2022-12-07T04:06:02.621Z,11.70
2022-12-07T04:08:28.961Z,12.27
2022-12-07T04:10:55.368Z,11.40
2022-12-07T04:13:21.688Z,12.15
2022-12-07T04:15:48.031Z,12.02
2022-12-07T04:18:14.444Z,12.57
2022-12-07T04:20:40.794Z,12.65
2022-12-07T04:23:07.137Z,12.55
2022-12-07T04:25:33.479Z,14.00
2022-12-07T04:27:59.796Z,11.75
2022-12-07T04:30:26.134Z,13.27
2022-12-07T04:32:52.440Z,13.38
2022-12-07T04:35:18.802Z,12.00
2022-12-07T04:37:45.160Z,13.00
2022-12-07T04:40:12.435Z,12.35
2022-12-07T04:42:39.216Z,11.32
2022-12-07T04:45:06.216Z,10.88
2022-12-07T04:47:32.617Z,11.18
2022-12-07T04:49:59.038Z,11.15
2022-12-07T04:52:25.467Z,10.98
2022-12-07T04:54:51.797Z,10.10
2022-12-07T04:57:18.105Z,10.60
2022-12-07T04:59:46.045Z,9.30
2022-12-07T05:02:13.013Z,9.27
2022-12-07T05:04:39.420Z,9.73
2022-12-07T05:07:05.708Z,9.48
2022-12-07T05:09:32.016Z,10.30
2022-12-07T05:11:58.348Z,9.52
2022-12-07T05:14:24.706Z,8.90
2022-12-07T05:16:51.919Z,9.40
2022-12-07T05:19:19.670Z,9.88
2022-12-07T05:21:46.465Z,9.23
2022-12-07T05:24:15.161Z,9.55
2022-12-07T05:26:42.226Z,9.13
2022-12-07T05:29:11.989Z,8.50
2022-12-07T05:31:38.345Z,10.23
2022-12-07T05:34:04.700Z,9.25
2022-12-07T05:36:31.066Z,8.85
2022-12-07T05:38:57.396Z,8.65
2022-12-07T05:41:23.786Z,8.90
2022-12-07T05:43:50.097Z,8.98
2022-12-07T05:46:16.461Z,8.75
2022-12-07T05:48:42.837Z,8.57
2022-12-07T05:51:09.171Z,8.80
2022-12-07T05:53:35.475Z,8.38
2022-12-07T05:56:01.811Z,8.57
2022-12-07T05:58:28.130Z,8.18
2022-12-07T06:00:57.985Z,7.15
2022-12-07T06:03:24.377Z,7.72
2022-12-07T06:05:50.815Z,6.93
2022-12-07T06:08:17.257Z,6.65
2022-12-07T06:10:43.690Z,6.70
2022-12-07T06:13:10.222Z,6.07
2022-12-07T06:15:37.710Z,6.35
2022-12-07T06:18:04.316Z,6.10
2022-12-07T06:20:30.674Z,5.50
2022-12-07T06:22:57.079Z,6.00
2022-12-07T06:25:23.426Z,6.70
2022-12-07T06:27:49.751Z,5.97
2022-12-07T06:30:16.280Z,8.90
2022-12-07T06:32:42.631Z,14.48
2022-12-07T06:35:09.043Z,12.40
2022-12-07T06:37:35.371Z,8.93
2022-12-07T06:40:02.215Z,7.38
2022-12-07T06:42:28.803Z,7.90
2022-12-07T06:44:55.135Z,6.93
2022-12-07T06:50:08.085Z,8.55
2022-12-07T06:52:35.080Z,8.57
2022-12-07T06:55:01.429Z,9.45
2022-12-07T06:57:27.797Z,8.60
2022-12-07T06:59:54.444Z,9.35
2022-12-07T07:02:20.809Z,7.95
2022-12-07T07:04:47.149Z,8.13
2022-12-07T07:07:13.491Z,9.25
2022-12-07T07:09:39.791Z,9.40
2022-12-07T07:12:06.298Z,10.02
2022-12-07T07:14:32.624Z,8.85
2022-12-07T07:16:59.012Z,9.32
2022-12-07T07:19:25.358Z,9.90
2022-12-07T07:21:51.714Z,9.25
2022-12-07T07:24:18.039Z,9.57
2022-12-07T07:26:44.338Z,9.52
2022-12-07T07:29:10.668Z,9.45
2022-12-07T07:31:36.974Z,9.10
2022-12-07T07:34:03.423Z,9.25
2022-12-07T07:36:29.766Z,8.73
2022-12-07T07:38:56.074Z,9.38
2022-12-07T07:41:22.410Z,8.93
2022-12-07T07:43:48.720Z,9.35
2022-12-07T07:46:15.124Z,8.82
2022-12-07T07:48:41.461Z,8.38
2022-12-07T07:51:08.753Z,7.35
2022-12-07T07:53:35.268Z,7.60
2022-12-07T07:56:01.638Z,7.80
2022-12-07T07:58:28.325Z,7.05
2022-12-07T08:00:54.637Z,7.45
2022-12-07T08:03:20.976Z,7.43
2022-12-07T08:05:47.310Z,7.85
2022-12-07T08:08:13.739Z,7.63
2022-12-07T08:10:40.207Z,7.03
2022-12-07T08:13:06.526Z,6.80
2022-12-07T08:15:32.942Z,7.18
2022-12-07T08:17:59.824Z,6.53
2022-12-07T08:20:26.780Z,6.28
2022-12-07T08:22:53.148Z,6.60
2022-12-07T08:25:19.948Z,5.70
2022-12-07T08:27:46.299Z,6.10
2022-12-07T08:30:12.842Z,5.35
2022-12-07T08:32:39.730Z,5.70
2022-12-07T08:35:06.615Z,5.88
2022-12-07T08:37:33.021Z,5.40
2022-12-07T08:39:59.802Z,5.15
2022-12-07T08:42:26.410Z,4.97
2022-12-07T08:44:52.707Z,4.57
2022-12-07T08:47:19.607Z,4.22
2022-12-07T08:49:48.626Z,4.38
2022-12-07T08:52:15.066Z,4.38
2022-12-07T08:54:42.713Z,5.55
2022-12-07T08:57:11.305Z,4.57
2022-12-07T08:59:38.402Z,5.03
2022-12-07T09:02:06.360Z,4.35
2022-12-07T09:04:32.831Z,5.28
2022-12-07T09:07:00.207Z,4.55
2022-12-07T09:09:26.578Z,4.25
2022-12-07T09:11:52.933Z,4.13
2022-12-07T09:14:19.296Z,4.20
2022-12-07T09:16:45.635Z,3.88
2022-12-07T09:19:12.096Z,4.20
2022-12-07T09:21:38.508Z,4.28
2022-12-07T09:24:05.054Z,3.78
2022-12-07T09:26:31.346Z,4.25
2022-12-07T09:28:57.673Z,3.97
2022-12-07T09:31:25.592Z,4.63
2022-12-07T09:34:00.660Z,4.10
2022-12-07T09:36:28.550Z,4.05
2022-12-07T09:38:55.009Z,4.55
2022-12-07T09:41:22.332Z,3.63
2022-12-07T09:43:48.726Z,4.00
2022-12-07T09:46:18.938Z,3.53
2022-12-07T09:48:46.162Z,3.30
2022-12-07T09:51:22.715Z,3.83
2022-12-07T09:53:51.258Z,4.03
2022-12-07T09:56:20.067Z,3.25
2022-12-07T09:58:47.479Z,3.60
2022-12-07T10:01:20.789Z,2.65
2022-12-07T10:03:51.248Z,3.13
2022-12-07T10:06:17.808Z,3.15
2022-12-07T10:08:44.175Z,3.60
2022-12-07T10:11:11.740Z,3.70
2022-12-07T10:13:47.165Z,4.53
2022-12-07T10:16:25.533Z,4.07
2022-12-07T10:18:52.965Z,4.35
2022-12-07T10:21:20.464Z,4.03
2022-12-07T10:24:25.515Z,4.03
2022-12-07T10:26:54.262Z,4.10
2022-12-07T10:29:39.128Z,4.32
2022-12-07T10:32:07.021Z,4.13
2022-12-07T10:34:42.733Z,3.08
2022-12-07T10:37:13.598Z,4.22
2022-12-07T10:39:44.649Z,3.00
2022-12-07T10:42:21.260Z,3.10
2022-12-07T10:44:49.990Z,3.20
2022-12-07T10:47:25.396Z,3.70
2022-12-07T10:50:00.457Z,3.25
2022-12-07T10:52:44.522Z,2.83
2022-12-07T10:55:20.817Z,2.67
2022-12-07T10:58:10.419Z,2.97
2022-12-07T11:00:50.643Z,2.92
2022-12-07T11:03:26.164Z,2.80
2022-12-07T11:06:02.444Z,2.97
2022-12-07T11:08:44.749Z,2.55
2022-12-07T11:11:15.133Z,2.60
2022-12-07T11:13:53.949Z,2.83
2022-12-07T11:16:49.479Z,2.90
2022-12-07T11:22:01.763Z,3.13
2022-12-07T11:24:49.368Z,2.72
2022-12-07T11:27:24.531Z,2.70
2022-12-07T11:30:09.626Z,3.72
2022-12-07T11:32:44.926Z,2.83
2022-12-07T11:36:02.881Z,2.67
2022-12-07T11:38:44.187Z,3.55
2022-12-07T11:41:10.990Z,2.78
2022-12-07T11:43:37.541Z,2.35
2022-12-07T11:46:09.850Z,2.65
2022-12-07T11:48:46.167Z,2.72
2022-12-07T11:51:14.021Z,2.80
2022-12-07T11:54:04.080Z,2.50
2022-12-07T11:56:31.446Z,2.47
2022-12-07T11:59:03.051Z,2.63
2022-12-07T12:01:32.340Z,2.50
2022-12-07T12:04:10.835Z,2.60
2022-12-07T12:06:38.681Z,2.63
2022-12-07T12:09:41.383Z,2.85
2022-12-07T12:15:18.495Z,2.65
2022-12-07T12:18:06.105Z,3.00
2022-12-07T12:20:48.245Z,2.17
2022-12-07T12:23:29.278Z,2.83
2022-12-07T12:25:59.351Z,2.63
2022-12-07T12:28:59.154Z,5.80
2022-12-07T12:31:28.304Z,3.10
2022-12-07T12:33:57.530Z,2.50
2022-12-07T12:36:27.512Z,2.63
2022-12-07T12:38:59.857Z,2.50
2022-12-07T12:41:38.435Z,2.60
2022-12-07T12:44:16.990Z,2.53
2022-12-07T12:46:52.462Z,2.22
2022-12-07T12:49:18.788Z,2.83
2022-12-07T12:52:23.300Z,2.30
2022-12-07T12:55:13.301Z,2.63
2022-12-07T12:57:39.690Z,1.90
2022-12-07T13:00:19.452Z,2.35
2022-12-07T13:02:54.183Z,2.17
2022-12-07T13:05:27.777Z,2.47
2022-12-07T13:07:58.871Z,2.13
2022-12-07T13:10:28.119Z,2.05
2022-12-07T13:13:01.801Z,2.58
2022-12-07T13:15:33.891Z,2.65
2022-12-07T13:18:02.218Z,2.92
2022-12-07T13:20:45.210Z,2.72
2022-12-07T13:23:13.014Z,2.53
2022-12-07T13:26:05.753Z,2.40
2022-12-07T13:28:40.310Z,2.72
2022-12-07T13:31:33.309Z,2.70
2022-12-07T13:34:00.461Z,2.08
2022-12-07T13:36:39.661Z,2.85
2022-12-07T13:39:35.657Z,2.53
2022-12-07T13:42:29.167Z,1.92
2022-12-07T13:44:57.634Z,2.58
2022-12-07T13:47:44.149Z,2.15
2022-12-07T13:50:31.933Z,1.80
2022-12-07T13:53:02.479Z,2.22
2022-12-07T13:55:30.081Z,2.42
2022-12-07T13:57:57.042Z,2.03
2022-12-07T14:00:29.525Z,2.38
2022-12-07T14:03:20.822Z,2.20
2022-12-07T14:05:47.177Z,2.25
2022-12-07T14:08:13.459Z,2.45
2022-12-07T14:10:48.778Z,2.60
2022-12-07T14:13:40.951Z,2.40
2022-12-07T14:16:32.373Z,2.70
2022-12-07T14:19:01.121Z,2.25
2022-12-07T14:21:30.051Z,2.63
2022-12-07T14:24:21.045Z,2.35
2022-12-07T14:26:51.764Z,2.47
2022-12-07T14:29:32.310Z,2.63
2022-12-07T14:32:11.295Z,2.30
2022-12-07T14:34:37.629Z,2.47
2022-12-07T14:37:07.753Z,2.67
2022-12-07T14:39:34.061Z,2.63
2022-12-07T14:42:00.417Z,7.30
2022-12-07T14:44:30.781Z,11.15
2022-12-07T14:49:48.114Z,3.20
2022-12-07T14:55:19.853Z,3.05
2022-12-07T14:57:46.196Z,2.53
2022-12-07T15:00:16.565Z,3.03
2022-12-07T15:02:42.880Z,2.33
2022-12-07T15:05:15.468Z,2.75
2022-12-07T15:07:42.880Z,2.40
2022-12-07T15:10:31.403Z,3.13
2022-12-07T15:13:02.321Z,2.70
2022-12-07T15:15:32.019Z,2.83
2022-12-07T15:17:58.512Z,2.70
2022-12-07T15:20:24.887Z,2.67
2022-12-07T15:22:51.204Z,3.08
2022-12-07T15:25:17.684Z,2.60
2022-12-07T15:27:44.053Z,2.60
2022-12-07T15:30:10.662Z,3.00
2022-12-07T15:32:37.079Z,2.72
2022-12-07T15:35:04.127Z,2.50
2022-12-07T15:37:30.730Z,2.60
2022-12-07T15:39:57.067Z,3.10
2022-12-07T15:42:23.379Z,2.55
2022-12-07T15:44:49.742Z,2.90
2022-12-07T15:47:16.071Z,2.75
2022-12-07T15:49:42.418Z,2.85
2022-12-07T15:52:08.764Z,3.30
2022-12-07T15:54:35.279Z,2.92
2022-12-07T15:57:01.968Z,2.85
2022-12-07T15:59:29.286Z,2.58
2022-12-07T16:01:56.695Z,3.33
2022-12-07T16:04:23.398Z,2.35
2022-12-07T16:06:49.786Z,2.22
2022-12-07T16:09:16.116Z,1.70
2022-12-07T16:11:42.446Z,1.08
2022-12-07T16:14:08.793Z,1.23
2022-12-07T16:16:35.193Z,1.00
2022-12-07T16:19:01.600Z,0.80
2022-12-07T16:21:27.928Z,1.10
2022-12-07T16:23:54.482Z,1.10
2022-12-07T16:26:22.654Z,0.85
2022-12-07T16:28:50.944Z,0.85
2022-12-07T16:31:19.382Z,0.80
2022-12-07T16:33:46.786Z,0.85
2022-12-07T16:36:15.258Z,0.98
2022-12-07T16:38:41.639Z,1.27
2022-12-07T16:41:08.359Z,1.20
2022-12-07T16:43:35.215Z,1.13
2022-12-07T16:46:01.630Z,1.20
2022-12-07T16:48:28.126Z,1.42
2022-12-07T16:50:54.474Z,2.00
2022-12-07T16:53:22.260Z,1.30
2022-12-07T16:55:48.851Z,1.52
2022-12-07T16:58:18.305Z,1.98
2022-12-07T17:00:46.108Z,1.52
2022-12-07T17:03:17.576Z,2.50
2022-12-07T17:05:47.817Z,2.75
2022-12-07T17:08:14.853Z,3.17
2022-12-07T17:10:43.781Z,4.18
2022-12-07T17:13:11.320Z,5.25
2022-12-07T17:15:37.628Z,4.38
2022-12-07T17:18:04.106Z,4.60
2022-12-07T17:20:30.403Z,4.65
2022-12-07T17:22:56.734Z,4.85
2022-12-07T17:25:23.049Z,4.45
2022-12-07T17:27:49.394Z,4.13
2022-12-07T17:30:16.131Z,4.00
2022-12-07T17:32:42.472Z,3.67
2022-12-07T17:35:09.516Z,4.47
2022-12-07T17:37:36.005Z,4.63
2022-12-07T17:40:02.560Z,4.80
2022-12-07T17:42:29.109Z,5.35
2022-12-07T17:44:55.623Z,5.55
2022-12-07T17:47:22.145Z,6.53
2022-12-07T17:49:48.633Z,6.43
2022-12-07T17:52:15.204Z,8.23
2022-12-07T17:54:41.636Z,6.60
2022-12-07T17:57:08.408Z,6.30
2022-12-07T17:59:34.696Z,4.93
2022-12-07T18:02:01.157Z,4.75
2022-12-07T18:04:27.588Z,4.38
2022-12-07T18:06:53.881Z,4.80
2022-12-07T18:09:21.027Z,4.30
2022-12-07T18:11:47.530Z,4.40
2022-12-07T18:14:13.837Z,5.07
2022-12-07T18:16:40.682Z,5.55
2022-12-07T18:19:07.499Z,3.95
2022-12-07T18:21:33.846Z,5.07
2022-12-07T18:24:01.978Z,5.55
2022-12-07T18:26:30.503Z,5.05
2022-12-07T18:28:59.384Z,5.38
2022-12-07T18:31:25.996Z,5.20
2022-12-07T18:33:52.356Z,4.97
2022-12-07T18:36:18.652Z,4.60
2022-12-07T18:38:45.011Z,4.68
2022-12-07T18:41:13.567Z,4.53
2022-12-07T18:43:40.461Z,5.10
2022-12-07T18:46:11.169Z,4.97
2022-12-07T18:48:37.725Z,4.22
2022-12-07T18:51:06.271Z,4.55
2022-12-07T18:53:33.832Z,4.13
2022-12-07T18:56:06.364Z,4.45
2022-12-07T18:58:33.342Z,4.03
2022-12-07T19:01:00.039Z,4.20
2022-12-07T19:03:32.785Z,4.35
2022-12-07T19:06:06.175Z,4.32
2022-12-07T19:08:32.575Z,4.03
2022-12-07T19:10:58.891Z,4.57
2022-12-07T19:13:25.213Z,4.70
2022-12-07T19:15:51.517Z,5.10
2022-12-07T19:18:17.850Z,5.05
2022-12-07T19:20:44.159Z,5.65
2022-12-07T19:23:10.489Z,5.60
2022-12-07T19:25:36.832Z,5.90
2022-12-07T19:28:03.173Z,6.00
2022-12-07T19:30:29.496Z,5.72
2022-12-07T19:32:55.808Z,6.40
2022-12-07T19:35:22.128Z,6.53
2022-12-07T19:37:48.443Z,7.25
2022-12-07T19:40:14.786Z,7.28
2022-12-07T19:42:41.092Z,7.15
2022-12-07T19:45:07.699Z,8.25
2022-12-07T19:47:33.996Z,8.60
2022-12-07T19:50:00.369Z,9.07
2022-12-07T19:52:26.701Z,10.18
2022-12-07T19:54:53.059Z,10.90
2022-12-07T19:57:19.396Z,10.25
2022-12-07T19:59:45.872Z,11.20
2022-12-07T20:02:14.348Z,10.32
2022-12-07T20:04:40.689Z,11.63
2022-12-07T20:07:07.431Z,11.05
2022-12-07T20:09:33.925Z,12.55
2022-12-07T20:12:00.336Z,11.82
2022-12-07T20:14:26.762Z,12.23
2022-12-07T20:16:53.513Z,12.55
2022-12-07T20:19:20.334Z,13.43
2022-12-07T20:21:47.016Z,13.65
2022-12-07T20:24:15.986Z,13.30
2022-12-07T20:26:42.363Z,15.00
2022-12-07T20:29:16.353Z,13.98
2022-12-07T20:31:45.510Z,14.40
2022-12-07T20:34:12.167Z,14.20
2022-12-07T20:36:38.862Z,14.68
2022-12-07T20:39:06.201Z,14.98
2022-12-07T20:41:33.125Z,14.95
2022-12-07T20:44:00.636Z,14.80
2022-12-07T20:46:27.493Z,14.02
2022-12-07T20:48:54.338Z,15.13
2022-12-07T20:51:20.697Z,14.57
2022-12-07T20:53:47.050Z,15.48
2022-12-07T20:56:22.952Z,15.65
2022-12-07T20:58:49.278Z,15.05
2022-12-07T21:01:16.747Z,14.90
2022-12-07T21:03:43.083Z,13.05
2022-12-07T21:06:13.323Z,13.73
2022-12-07T21:08:43.079Z,12.88
2022-12-07T21:11:09.399Z,13.13
2022-12-07T21:13:35.769Z,13.43
2022-12-07T21:16:07.442Z,14.05
2022-12-07T21:18:33.855Z,14.55
2022-12-07T21:21:03.153Z,13.20
2022-12-07T21:23:29.492Z,13.75
2022-12-07T21:25:55.822Z,13.63
2022-12-07T21:28:22.133Z,13.82
2022-12-07T21:31:12.122Z,13.95
2022-12-07T21:33:35.442Z,13.95
2022-12-07T21:36:04.170Z,15.27
2022-12-07T21:38:30.871Z,14.63
2022-12-07T21:40:57.219Z,14.13
2022-12-07T21:43:23.887Z,14.05
2022-12-07T21:45:54.773Z,15.00
2022-12-07T21:48:21.708Z,14.73
2022-12-07T21:50:48.214Z,14.15
2022-12-07T21:53:15.581Z,15.75
2022-12-07T21:55:42.743Z,14.73
2022-12-07T21:58:09.095Z,16.95
2022-12-07T22:00:35.920Z,15.65
2022-12-07T22:03:02.979Z,14.98
2022-12-07T22:05:29.410Z,15.35
2022-12-07T22:07:55.890Z,14.85
2022-12-07T22:10:22.363Z,15.23
2022-12-07T22:12:48.674Z,14.73
2022-12-07T22:15:15.080Z,15.95
2022-12-07T22:17:41.403Z,15.38
2022-12-07T22:20:08.039Z,16.23
2022-12-07T22:22:34.374Z,16.40
2022-12-07T22:25:00.814Z,16.42
2022-12-07T22:27:27.225Z,15.82
2022-12-07T22:29:53.553Z,14.50
2022-12-07T22:32:47.059Z,15.43
2022-12-07T22:35:06.492Z,16.48
2022-12-07T22:37:33.062Z,16.38
2022-12-07T22:39:59.533Z,18.10
2022-12-07T22:42:26.003Z,17.92
2022-12-07T22:44:52.354Z,18.25
2022-12-07T22:47:18.681Z,17.52
2022-12-07T22:49:44.992Z,17.95
2022-12-07T22:52:11.324Z,17.40
2022-12-07T22:54:37.654Z,18.00
2022-12-07T22:57:03.970Z,17.98
2022-12-07T22:59:30.327Z,16.63
2022-12-07T23:01:56.643Z,17.02
2022-12-07T23:04:23.043Z,17.40
2022-12-07T23:06:49.423Z,16.95
2022-12-07T23:09:15.756Z,16.38
2022-12-07T23:11:42.739Z,17.23
2022-12-07T23:14:20.750Z,16.42
2022-12-07T23:16:47.213Z,16.10
2022-12-07T23:19:13.887Z,16.40
2022-12-07T23:21:40.573Z,15.95
2022-12-07T23:24:07.398Z,16.23
2022-12-07T23:26:33.797Z,15.20
2022-12-07T23:29:00.122Z,15.57
2022-12-07T23:31:26.640Z,15.88
2022-12-07T23:33:53.058Z,15.10
2022-12-07T23:36:24.426Z,17.17
2022-12-07T23:38:52.130Z,16.35
2022-12-07T23:41:21.608Z,14.98
2022-12-07T23:43:48.380Z,15.60
2022-12-07T23:46:18.022Z,15.45
2022-12-07T23:48:45.226Z,15.75
2022-12-07T23:51:14.016Z,15.27
2022-12-07T23:53:43.355Z,17.08
2022-12-07T23:56:19.048Z,16.70
2022-12-07T23:58:46.462Z,18.00
